Time,TemperatureF,DewpointF,PressureIn,WindDirection,WindDirectionDegrees,WindSpeedMPH,WindSpeedGustMPH,Humidity,HourlyPrecipIn,Conditions,Clouds,dailyrainin,SoftwareType,DateUTC
2013-10-08 00:01:00,58.9,49.2,29.89,NW,308,2.0,4.0,70,0.00,,---,0.35,VWS V14.00,2013-10-08 04:01:00,
2013-10-08 00:02:00,58.8,49.0,29.89,WNW,298,2.0,4.0,70,0.00,,---,0.35,VWS V14.00,2013-10-08 04:02:00,
2013-10-08 00:05:00,58.7,48.6,29.89,WNW,290,3.0,5.0,69,0.00,,---,0.00,VWS V14.00,2013-10-08 04:05:00,
2013-10-08 00:10:00,58.6,48.9,29.90,NNW,330,3.0,4.0,70,0.00,,---,0.00,VWS V14.00,2013-10-08 04:10:00,
2013-10-08 00:16:00,58.4,48.7,29.90,WNW,298,2.0,3.0,70,0.00,,---,0.00,VWS V14.00,2013-10-08 04:16:00,
2013-10-08 00:21:00,58.3,48.6,29.90,NW,321,2.0,5.0,70,0.00,,---,0.00,VWS V14.00,2013-10-08 04:21:00,
2013-10-08 00:26:00,58.2,48.5,29.90,NNW,330,3.0,3.0,70,0.00,,---,0.00,VWS V14.00,2013-10-08 04:26:00,
2013-10-08 00:31:00,58.1,48.4,29.90,NW,324,1.0,4.0,70,0.00,,---,0.00,VWS V14.00,2013-10-08 04:31:00,
2013-10-08 00:36:00,58.1,48.4,29.90,NW,317,0.0,4.0,70,0.00,,---,0.00,VWS V14.00,2013-10-08 04:36:00,
2013-10-08 00:41:00,57.9,47.8,29.91,NW,311,3.0,3.0,69,0.00,,---,0.00,VWS V14.00,2013-10-08 04:41:00,
2013-10-08 00:46:00,57.9,48.2,29.91,NW,323,0.0,3.0,70,0.00,,---,0.00,VWS V14.00,2013-10-08 04:46:00,
2013-10-08 00:52:00,57.6,48.3,29.92,NW,309,0.0,1.0,71,0.00,,---,0.00,VWS V14.00,2013-10-08 04:52:00,
2013-10-08 00:57:00,57.4,48.1,29.92,WNW,285,0.0,2.0,71,0.00,,---,0.00,VWS V14.00,2013-10-08 04:57:00,
2013-10-08 01:02:00,57.1,48.2,29.92,NW,316,1.0,1.0,72,0.00,,---,0.00,VWS V14.00,2013-10-08 05:02:00,
2013-10-08 01:07:00,56.9,48.0,29.92,NNW,340,1.0,2.0,72,0.00,,---,0.00,VWS V14.00,2013-10-08 05:07:00,
2013-10-08 01:12:00,56.7,48.2,29.92,NNW,333,1.0,3.0,73,0.00,,---,0.00,VWS V14.00,2013-10-08 05:12:00,
2013-10-08 01:17:00,56.5,47.6,29.93,NW,312,1.0,3.0,72,0.00,,---,0.00,VWS V14.00,2013-10-08 05:17:00,
2013-10-08 01:22:00,56.6,47.7,29.93,NW,321,0.0,2.0,72,0.00,,---,0.00,VWS V14.00,2013-10-08 05:22:00,
2013-10-08 01:28:00,56.6,47.7,29.94,NW,319,1.0,3.0,72,0.00,,---,0.00,VWS V14.00,2013-10-08 05:28:00,
2013-10-08 01:33:00,56.6,47.7,29.94,WNW,295,1.0,2.0,72,0.00,,---,0.00,VWS V14.00,2013-10-08 05:33:00,
2013-10-08 01:38:00,56.5,48.0,29.94,WNW,294,1.0,2.0,73,0.00,,---,0.00,VWS V14.00,2013-10-08 05:38:00,
2013-10-08 01:43:00,56.3,47.8,29.95,NW,316,1.0,2.0,73,0.00,,---,0.00,VWS V14.00,2013-10-08 05:43:00,
2013-10-08 01:48:00,56.2,48.0,29.95,NW,317,1.0,1.0,74,0.00,,---,0.00,VWS V14.00,2013-10-08 05:48:00,
2013-10-08 01:53:00,56.0,47.8,29.95,NW,314,0.0,2.0,74,0.00,,---,0.00,VWS V14.00,2013-10-08 05:53:00,
2013-10-08 01:58:00,55.8,48.0,29.95,NNW,331,1.0,1.0,75,0.00,,---,0.00,VWS V14.00,2013-10-08 05:58:00,
2013-10-08 02:03:00,55.5,48.4,29.95,NNW,332,0.0,0.0,77,0.00,,---,0.00,VWS V14.00,2013-10-08 06:03:00,
2013-10-08 02:08:00,55.1,48.4,29.96,NNW,332,0.0,0.0,78,0.00,,---,0.00,VWS V14.00,2013-10-08 06:08:00,
2013-10-08 02:14:00,54.8,48.4,29.96,NNW,331,0.0,0.0,79,0.00,,---,0.00,VWS V14.00,2013-10-08 06:14:00,
2013-10-08 02:19:00,54.3,47.9,29.96,NNW,331,0.0,0.0,79,0.00,,---,0.00,VWS V14.00,2013-10-08 06:19:00,
2013-10-08 02:24:00,53.9,47.5,29.96,NNW,331,0.0,0.0,79,0.00,,---,0.00,VWS V14.00,2013-10-08 06:24:00,
2013-10-08 02:29:00,53.5,47.5,29.96,NNW,332,0.0,0.0,80,0.00,,---,0.00,VWS V14.00,2013-10-08 06:29:00,
2013-10-08 02:34:00,53.3,47.6,29.96,NNW,331,0.0,0.0,81,0.00,,---,0.00,VWS V14.00,2013-10-08 06:34:00,
2013-10-08 02:39:00,52.8,47.5,29.96,NNW,331,0.0,0.0,82,0.00,,---,0.00,VWS V14.00,2013-10-08 06:39:00,
2013-10-08 02:44:00,52.3,47.3,29.97,NNW,331,0.0,0.0,83,0.00,,---,0.00,VWS V14.00,2013-10-08 06:44:00,
2013-10-08 02:49:00,50.8,45.8,29.96,NNW,331,0.0,0.0,83,0.00,,---,0.00,VWS V14.00,2013-10-08 06:49:00,
2013-10-08 02:54:00,50.8,45.8,29.97,NNW,332,0.0,0.0,83,0.00,,---,0.00,VWS V14.00,2013-10-08 06:54:00,
2013-10-08 03:00:00,50.8,45.8,29.96,NNW,332,0.0,0.0,83,0.00,,---,0.00,VWS V14.00,2013-10-08 07:00:00,
2013-10-08 03:05:00,50.8,45.8,29.97,NNW,332,0.0,0.0,83,0.00,,---,0.00,VWS V14.00,2013-10-08 07:05:00,
2013-10-08 03:10:00,50.8,45.8,29.97,NNW,332,0.0,0.0,83,0.00,,---,0.00,VWS V14.00,2013-10-08 07:10:00,
2013-10-08 03:15:00,50.8,45.8,29.97,NNW,332,0.0,0.0,83,0.00,,---,0.00,VWS V14.00,2013-10-08 07:15:00,
2013-10-08 03:20:00,50.8,45.8,29.97,NNW,332,0.0,0.0,83,0.00,,---,0.00,VWS V14.00,2013-10-08 07:20:00,
2013-10-08 03:25:00,50.8,45.8,29.97,NNW,332,0.0,0.0,83,0.00,,---,0.00,VWS V14.00,2013-10-08 07:25:00,
2013-10-08 03:30:00,50.8,45.8,29.97,NNW,332,0.0,0.0,83,0.00,,---,0.00,VWS V14.00,2013-10-08 07:30:00,
2013-10-08 03:35:00,50.8,45.8,29.98,NNW,332,0.0,0.0,83,0.00,,---,0.00,VWS V14.00,2013-10-08 07:35:00,
2013-10-08 03:40:00,50.8,45.8,29.98,NNW,332,0.0,0.0,83,0.00,,---,0.00,VWS V14.00,2013-10-08 07:40:00,
2013-10-08 03:45:00,50.8,45.8,29.98,NNW,332,0.0,0.0,83,0.00,,---,0.00,VWS V14.00,2013-10-08 07:45:00,
2013-10-08 03:50:00,50.8,45.8,29.98,NNW,332,0.0,0.0,83,0.00,,---,0.00,VWS V14.00,2013-10-08 07:50:00,
2013-10-08 03:55:00,50.8,45.8,29.98,NNW,332,0.0,0.0,83,0.00,,---,0.00,VWS V14.00,2013-10-08 07:55:00,
2013-10-08 04:00:00,50.8,45.8,29.98,NNW,332,0.0,0.0,83,0.00,,---,0.00,VWS V14.00,2013-10-08 08:00:00,
2013-10-08 04:05:00,50.8,45.8,29.99,NNW,332,0.0,0.0,83,0.00,,---,0.00,VWS V14.00,2013-10-08 08:05:00,
2013-10-08 04:11:00,50.8,45.8,29.99,NNW,332,0.0,0.0,83,0.00,,---,0.00,VWS V14.00,2013-10-08 08:11:00,
2013-10-08 04:16:00,50.8,45.8,29.99,NNW,332,0.0,0.0,83,0.00,,---,0.00,VWS V14.00,2013-10-08 08:16:00,
2013-10-08 04:21:00,50.8,45.8,30.00,NNW,332,0.0,0.0,83,0.00,,---,0.00,VWS V14.00,2013-10-08 08:21:00,
2013-10-08 04:26:00,50.8,45.8,30.00,NNW,332,0.0,0.0,83,0.00,,---,0.00,VWS V14.00,2013-10-08 08:26:00,
2013-10-08 04:31:00,50.8,45.8,30.00,NNW,332,0.0,0.0,83,0.00,,---,0.00,VWS V14.00,2013-10-08 08:31:00,
2013-10-08 04:36:00,50.8,45.8,30.00,NNW,332,0.0,0.0,83,0.00,,---,0.00,VWS V14.00,2013-10-08 08:36:00,
2013-10-08 04:41:00,50.8,45.8,30.01,NNW,332,0.0,0.0,83,0.00,,---,0.00,VWS V14.00,2013-10-08 08:41:00,
2013-10-08 04:46:00,50.8,45.8,30.01,NNW,332,0.0,0.0,83,0.00,,---,0.00,VWS V14.00,2013-10-08 08:46:00,
2013-10-08 04:51:00,50.8,45.8,30.02,NNW,332,0.0,0.0,83,0.00,,---,0.00,VWS V14.00,2013-10-08 08:51:00,
2013-10-08 04:56:00,50.8,45.8,30.02,NNW,332,0.0,0.0,83,0.00,,---,0.00,VWS V14.00,2013-10-08 08:56:00,
2013-10-08 05:01:00,50.8,45.8,30.02,NNW,332,0.0,0.0,83,0.00,,---,0.00,VWS V14.00,2013-10-08 09:01:00,
2013-10-08 05:06:00,50.8,45.8,30.02,NNW,332,0.0,0.0,83,0.00,,---,0.00,VWS V14.00,2013-10-08 09:06:00,
2013-10-08 05:11:00,50.8,45.8,30.03,NNW,332,0.0,0.0,83,0.00,,---,0.00,VWS V14.00,2013-10-08 09:11:00,
2013-10-08 05:17:00,50.8,45.8,30.02,NNW,332,0.0,0.0,83,0.00,,---,0.00,VWS V14.00,2013-10-08 09:17:00,
2013-10-08 05:22:00,50.8,45.8,30.03,NNW,332,0.0,0.0,83,0.00,,---,0.00,VWS V14.00,2013-10-08 09:22:00,
2013-10-08 05:27:00,50.8,45.8,30.03,NNW,332,0.0,0.0,83,0.00,,---,0.00,VWS V14.00,2013-10-08 09:27:00,
2013-10-08 05:32:00,50.8,45.8,30.03,NNW,332,0.0,0.0,83,0.00,,---,0.00,VWS V14.00,2013-10-08 09:32:00,
2013-10-08 05:37:00,50.8,45.8,30.03,NNW,332,0.0,0.0,83,0.00,,---,0.00,VWS V14.00,2013-10-08 09:37:00,
2013-10-08 05:42:00,50.8,45.8,30.03,NNW,332,0.0,0.0,83,0.00,,---,0.00,VWS V14.00,2013-10-08 09:42:00,
2013-10-08 05:47:00,50.8,45.8,30.03,NNW,332,0.0,0.0,83,0.00,,---,0.00,VWS V14.00,2013-10-08 09:47:00,
2013-10-08 05:52:00,50.8,45.8,30.03,NNW,332,0.0,0.0,83,0.00,,---,0.00,VWS V14.00,2013-10-08 09:52:00,
2013-10-08 05:57:00,50.8,45.8,30.04,NNW,332,0.0,0.0,83,0.00,,---,0.00,VWS V14.00,2013-10-08 09:57:00,
2013-10-08 06:02:00,50.8,45.8,30.04,NNW,332,0.0,0.0,83,0.00,,---,0.00,VWS V14.00,2013-10-08 10:02:00,
2013-10-08 06:07:00,50.8,45.8,30.04,NNW,332,0.0,0.0,83,0.00,,---,0.00,VWS V14.00,2013-10-08 10:07:00,
2013-10-08 06:12:00,50.8,45.8,30.04,NNW,332,0.0,0.0,83,0.00,,---,0.00,VWS V14.00,2013-10-08 10:12:00,
2013-10-08 06:17:00,50.8,45.8,30.04,NNW,332,0.0,0.0,83,0.00,,---,0.00,VWS V14.00,2013-10-08 10:17:00,
2013-10-08 06:22:00,50.8,45.8,30.04,NNW,332,0.0,0.0,83,0.00,,---,0.00,VWS V14.00,2013-10-08 10:22:00,
2013-10-08 06:27:00,50.8,45.8,30.04,NNW,332,0.0,0.0,83,0.00,,---,0.00,VWS V14.00,2013-10-08 10:27:00,
2013-10-08 06:32:00,50.8,45.8,30.05,NNW,332,0.0,0.0,83,0.00,,---,0.00,VWS V14.00,2013-10-08 10:32:00,
2013-10-08 06:38:00,50.8,45.8,30.06,NNW,332,0.0,0.0,83,0.00,,---,0.00,VWS V14.00,2013-10-08 10:38:00,
2013-10-08 06:43:00,50.8,45.8,30.06,NNW,332,0.0,0.0,83,0.00,,---,0.00,VWS V14.00,2013-10-08 10:43:00,
2013-10-08 06:48:00,50.8,45.8,30.07,NNW,332,0.0,0.0,83,0.00,,---,0.00,VWS V14.00,2013-10-08 10:48:00,
2013-10-08 06:53:00,50.8,45.8,30.06,NNW,332,0.0,0.0,83,0.00,,---,0.00,VWS V14.00,2013-10-08 10:53:00,
2013-10-08 06:58:00,50.8,45.8,30.07,NNW,332,0.0,0.0,83,0.00,,---,0.00,VWS V14.00,2013-10-08 10:58:00,
2013-10-08 07:03:00,50.8,45.8,30.07,NNW,332,0.0,0.0,83,0.00,,---,0.00,VWS V14.00,2013-10-08 11:03:00,
2013-10-08 07:08:00,50.8,45.8,30.07,NNW,332,0.0,0.0,83,0.00,,---,0.00,VWS V14.00,2013-10-08 11:08:00,
2013-10-08 07:13:00,50.8,45.8,30.08,NNW,332,0.0,0.0,83,0.00,,---,0.00,VWS V14.00,2013-10-08 11:13:00,
2013-10-08 07:18:00,50.8,45.8,30.08,NNW,332,0.0,0.0,83,0.00,,---,0.00,VWS V14.00,2013-10-08 11:18:00,
2013-10-08 07:23:00,50.8,45.8,30.08,NNW,332,0.0,0.0,83,0.00,,---,0.00,VWS V14.00,2013-10-08 11:23:00,
2013-10-08 07:28:00,50.8,45.8,30.08,NNW,332,0.0,0.0,83,0.00,,---,0.00,VWS V14.00,2013-10-08 11:28:00,
2013-10-08 07:33:00,50.8,45.8,30.08,NNW,332,0.0,0.0,83,0.00,,---,0.00,VWS V14.00,2013-10-08 11:33:00,
2013-10-08 07:38:00,50.8,45.8,30.09,NNW,332,0.0,0.0,83,0.00,,---,0.00,VWS V14.00,2013-10-08 11:38:00,
2013-10-08 07:43:00,50.8,45.8,30.09,NNW,332,0.0,0.0,83,0.00,,---,0.00,VWS V14.00,2013-10-08 11:43:00,
2013-10-08 07:48:00,50.8,45.8,30.09,NNW,332,0.0,0.0,83,0.00,,---,0.00,VWS V14.00,2013-10-08 11:48:00,
2013-10-08 07:53:00,51.5,46.8,30.09,North,10,1.0,2.0,84,0.00,,---,0.00,VWS V14.00,2013-10-08 11:53:00,
2013-10-08 07:58:00,51.9,47.2,30.10,North,1,0.0,1.0,84,0.00,,---,0.00,VWS V14.00,2013-10-08 11:58:00,
2013-10-08 08:03:00,52.4,47.1,30.10,NNW,342,3.0,4.0,82,0.00,,---,0.00,VWS V14.00,2013-10-08 12:03:00,
2013-10-08 08:08:00,53.0,47.3,30.10,NNW,338,3.0,4.0,81,0.00,,---,0.00,VWS V14.00,2013-10-08 12:08:00,
2013-10-08 08:13:00,53.5,47.5,30.11,NW,309,4.0,5.0,80,0.00,,---,0.00,VWS V14.00,2013-10-08 12:13:00,
2013-10-08 08:18:00,54.0,47.3,30.11,North,11,3.0,7.0,78,0.00,,---,0.00,VWS V14.00,2013-10-08 12:18:00,
2013-10-08 08:23:00,54.4,47.7,30.11,NNE,16,2.0,6.0,78,0.00,,---,0.00,VWS V14.00,2013-10-08 12:23:00,
2013-10-08 08:28:00,54.9,48.2,30.12,NE,54,0.0,4.0,78,0.00,,---,0.00,VWS V14.00,2013-10-08 12:28:00,
2013-10-08 08:33:00,55.5,48.1,30.13,North,8,1.0,2.0,76,0.00,,---,0.00,VWS V14.00,2013-10-08 12:33:00,
2013-10-08 08:38:00,55.7,47.9,30.13,NNW,348,3.0,4.0,75,0.00,,---,0.00,VWS V14.00,2013-10-08 12:38:00,
2013-10-08 08:43:00,56.0,48.2,30.13,NNW,348,4.0,5.0,75,0.00,,---,0.00,VWS V14.00,2013-10-08 12:43:00,
2013-10-08 08:48:00,56.3,48.1,30.14,NNE,20,3.0,7.0,74,0.00,,---,0.00,VWS V14.00,2013-10-08 12:48:00,
2013-10-08 08:53:00,56.8,48.6,30.14,NNW,330,4.0,6.0,74,0.00,,---,0.00,VWS V14.00,2013-10-08 12:53:00,
2013-10-08 08:58:00,57.0,48.1,30.14,NNW,336,8.0,8.0,72,0.00,,---,0.00,VWS V14.00,2013-10-08 12:58:00,
2013-10-08 09:03:00,57.2,48.3,30.14,NNE,23,7.0,10.0,72,0.00,,---,0.00,VWS V14.00,2013-10-08 13:03:00,
2013-10-08 09:08:00,57.4,47.7,30.14,NW,315,6.0,10.0,70,0.00,,---,0.00,VWS V14.00,2013-10-08 13:08:00,
2013-10-08 09:13:00,57.8,48.1,30.14,NNE,30,7.0,10.0,70,0.00,,---,0.00,VWS V14.00,2013-10-08 13:13:00,
2013-10-08 09:18:00,58.0,48.3,30.14,NNW,345,6.0,7.0,70,0.00,,---,0.00,VWS V14.00,2013-10-08 13:18:00,
2013-10-08 09:23:00,58.5,48.0,30.14,NNW,331,4.0,7.0,68,0.00,,---,0.00,VWS V14.00,2013-10-08 13:23:00,
2013-10-08 09:28:00,58.7,47.4,30.14,NNE,25,8.0,12.0,66,0.00,,---,0.00,VWS V14.00,2013-10-08 13:28:00,
2013-10-08 09:33:00,58.6,47.3,30.15,NNW,329,10.0,11.0,66,0.00,,---,0.00,VWS V14.00,2013-10-08 13:33:00,
2013-10-08 09:38:00,58.8,47.5,30.15,NW,308,7.0,12.0,66,0.00,,---,0.00,VWS V14.00,2013-10-08 13:38:00,
2013-10-08 09:43:00,59.0,47.3,30.15,NNW,347,8.0,12.0,65,0.00,,---,0.00,VWS V14.00,2013-10-08 13:43:00,
2013-10-08 09:48:00,59.2,47.5,30.15,NW,322,2.0,10.0,65,0.00,,---,0.00,VWS V14.00,2013-10-08 13:48:00,
2013-10-08 09:53:00,59.5,46.9,30.15,NNW,339,5.0,10.0,63,0.00,,---,0.00,VWS V14.00,2013-10-08 13:53:00,
2013-10-08 09:58:00,59.8,47.2,30.15,North,3,6.0,9.0,63,0.00,,---,0.00,VWS V14.00,2013-10-08 13:58:00,
2013-10-08 10:03:00,59.9,47.7,30.15,NNE,15,4.0,8.0,64,0.00,,---,0.00,VWS V14.00,2013-10-08 14:03:00,
2013-10-08 10:08:00,60.0,46.5,30.15,North,6,4.0,6.0,61,0.00,,---,0.00,VWS V14.00,2013-10-08 14:08:00,
2013-10-08 10:13:00,60.2,47.2,30.15,NNW,333,5.0,10.0,62,0.00,,---,0.00,VWS V14.00,2013-10-08 14:13:00,
2013-10-08 10:18:00,60.6,47.5,30.15,NNE,23,5.0,5.0,62,0.00,,---,0.00,VWS V14.00,2013-10-08 14:18:00,
2013-10-08 10:23:00,60.5,46.1,30.15,North,356,7.0,13.0,59,0.00,,---,0.00,VWS V14.00,2013-10-08 14:23:00,
2013-10-08 10:28:00,60.5,47.0,30.15,North,352,6.0,8.0,61,0.00,,---,0.00,VWS V14.00,2013-10-08 14:28:00,
2013-10-08 10:33:00,60.7,45.8,30.15,ENE,60,8.0,10.0,58,0.00,,---,0.00,VWS V14.00,2013-10-08 14:33:00,
2013-10-08 10:38:00,60.8,45.5,30.15,NNE,27,7.0,8.0,57,0.00,,---,0.00,VWS V14.00,2013-10-08 14:38:00,
2013-10-08 10:43:00,60.8,46.0,30.15,ENE,66,5.0,9.0,58,0.00,,---,0.00,VWS V14.00,2013-10-08 14:43:00,
2013-10-08 10:49:00,61.0,45.7,30.15,NNE,30,6.0,8.0,57,0.00,,---,0.00,VWS V14.00,2013-10-08 14:49:00,
2013-10-08 10:54:00,61.0,46.1,30.15,NNE,29,6.0,11.0,58,0.00,,---,0.00,VWS V14.00,2013-10-08 14:54:00,
2013-10-08 10:59:00,61.2,47.2,30.15,ENE,70,6.0,8.0,60,0.00,,---,0.00,VWS V14.00,2013-10-08 14:59:00,
2013-10-08 11:04:00,61.3,46.9,30.15,NNW,346,6.0,10.0,59,0.00,,---,0.00,VWS V14.00,2013-10-08 15:04:00,
2013-10-08 11:09:00,61.2,46.8,30.15,NNE,27,6.0,10.0,59,0.00,,---,0.00,VWS V14.00,2013-10-08 15:09:00,
2013-10-08 11:14:00,61.3,46.4,30.15,North,356,5.0,13.0,58,0.00,,---,0.00,VWS V14.00,2013-10-08 15:14:00,
2013-10-08 11:19:00,62.0,47.1,30.15,NNE,20,1.0,10.0,58,0.00,,---,0.00,VWS V14.00,2013-10-08 15:19:00,
2013-10-08 11:24:00,62.3,46.0,30.15,NW,321,6.0,7.0,55,0.00,,---,0.00,VWS V14.00,2013-10-08 15:24:00,
2013-10-08 11:29:00,62.2,45.8,30.15,NW,308,4.0,9.0,55,0.00,,---,0.00,VWS V14.00,2013-10-08 15:29:00,
2013-10-08 11:34:00,62.5,47.1,30.15,NNW,348,3.0,4.0,57,0.00,,---,0.00,VWS V14.00,2013-10-08 15:34:00,
2013-10-08 11:39:00,62.5,46.1,30.15,NNE,31,4.0,7.0,55,0.00,,---,0.00,VWS V14.00,2013-10-08 15:39:00,
2013-10-08 11:44:00,62.8,46.4,30.15,NNE,32,6.0,6.0,55,0.00,,---,0.00,VWS V14.00,2013-10-08 15:44:00,
2013-10-08 11:50:00,63.0,47.1,30.15,NNE,19,8.0,9.0,56,0.00,,---,0.00,VWS V14.00,2013-10-08 15:50:00,
2013-10-08 11:55:00,63.0,46.6,30.15,NE,34,4.0,10.0,55,0.00,,---,0.00,VWS V14.00,2013-10-08 15:55:00,
2013-10-08 12:00:00,63.4,47.0,30.15,NNE,16,8.0,11.0,55,0.00,,---,0.00,VWS V14.00,2013-10-08 16:00:00,
2013-10-08 12:05:00,63.4,47.0,30.15,NNW,329,3.0,10.0,55,0.00,,---,0.00,VWS V14.00,2013-10-08 16:05:00,
2013-10-08 12:10:00,63.5,45.6,30.15,NE,34,3.0,10.0,52,0.00,,---,0.00,VWS V14.00,2013-10-08 16:10:00,
2013-10-08 12:15:00,64.0,46.0,30.15,NNW,336,4.0,5.0,52,0.00,,---,0.00,VWS V14.00,2013-10-08 16:15:00,
2013-10-08 12:20:00,64.1,46.1,30.15,NE,36,5.0,9.0,52,0.00,,---,0.00,VWS V14.00,2013-10-08 16:20:00,
2013-10-08 12:25:00,64.2,46.2,30.14,NNE,30,7.0,11.0,52,0.00,,---,0.00,VWS V14.00,2013-10-08 16:25:00,
2013-10-08 12:30:00,64.1,46.1,30.14,NNW,333,4.0,11.0,52,0.00,,---,0.00,VWS V14.00,2013-10-08 16:30:00,
2013-10-08 12:35:00,64.4,45.9,30.14,North,4,4.0,9.0,51,0.00,,---,0.00,VWS V14.00,2013-10-08 16:35:00,
2013-10-08 12:40:00,64.8,46.8,30.14,NNW,345,7.0,11.0,52,0.00,,---,0.00,VWS V14.00,2013-10-08 16:40:00,
2013-10-08 12:45:00,64.7,46.7,30.14,ENE,66,7.0,13.0,52,0.00,,---,0.00,VWS V14.00,2013-10-08 16:45:00,
2013-10-08 12:50:00,64.5,46.0,30.14,NW,319,7.0,13.0,51,0.00,,---,0.00,VWS V14.00,2013-10-08 16:50:00,
2013-10-08 12:56:00,64.6,46.1,30.13,NNW,331,12.0,12.0,51,0.00,,---,0.00,VWS V14.00,2013-10-08 16:56:00,
2013-10-08 13:01:00,64.8,45.7,30.13,ENE,57,8.0,9.0,50,0.00,,---,0.00,VWS V14.00,2013-10-08 17:01:00,
2013-10-08 13:06:00,64.9,45.3,30.14,NW,317,3.0,13.0,49,0.00,,---,0.00,VWS V14.00,2013-10-08 17:06:00,
2013-10-08 13:11:00,64.8,44.1,30.13,WNW,297,3.0,8.0,47,0.00,,---,0.00,VWS V14.00,2013-10-08 17:11:00,
2013-10-08 13:16:00,65.0,43.7,30.13,NNW,346,9.0,13.0,46,0.00,,---,0.00,VWS V14.00,2013-10-08 17:16:00,
2013-10-08 13:21:00,65.1,44.9,30.13,NW,326,4.0,11.0,48,0.00,,---,0.00,VWS V14.00,2013-10-08 17:21:00,
2013-10-08 13:26:00,65.8,45.6,30.13,NNW,348,8.0,12.0,48,0.00,,---,0.00,VWS V14.00,2013-10-08 17:26:00,
2013-10-08 13:31:00,65.6,44.8,30.13,North,360,5.0,13.0,47,0.00,,---,0.00,VWS V14.00,2013-10-08 17:31:00,
2013-10-08 13:36:00,65.6,45.4,30.13,NNW,330,9.0,11.0,48,0.00,,---,0.00,VWS V14.00,2013-10-08 17:36:00,
2013-10-08 13:41:00,65.3,45.1,30.13,NW,312,9.0,13.0,48,0.00,,---,0.00,VWS V14.00,2013-10-08 17:41:00,
2013-10-08 13:46:00,65.4,44.1,30.13,NNE,15,4.0,12.0,46,0.00,,---,0.00,VWS V14.00,2013-10-08 17:46:00,
2013-10-08 13:51:00,65.9,45.1,30.13,NW,310,7.0,13.0,47,0.00,,---,0.00,VWS V14.00,2013-10-08 17:51:00,
2013-10-08 13:56:00,65.6,43.7,30.13,North,6,6.0,14.0,45,0.00,,---,0.00,VWS V14.00,2013-10-08 17:56:00,
2013-10-08 14:01:00,65.8,43.9,30.12,North,11,5.0,13.0,45,0.00,,---,0.00,VWS V14.00,2013-10-08 18:01:00,
2013-10-08 14:06:00,65.6,43.7,30.12,WNW,300,6.0,12.0,45,0.00,,---,0.00,VWS V14.00,2013-10-08 18:06:00,
2013-10-08 14:12:00,65.8,44.5,30.12,NW,321,10.0,13.0,46,0.00,,---,0.00,VWS V14.00,2013-10-08 18:12:00,
2013-10-08 14:17:00,66.0,44.7,30.12,North,359,5.0,9.0,46,0.00,,---,0.00,VWS V14.00,2013-10-08 18:17:00,
2013-10-08 14:22:00,65.8,45.0,30.12,NNW,331,4.0,8.0,47,0.00,,---,0.00,VWS V14.00,2013-10-08 18:22:00,
2013-10-08 14:27:00,65.9,44.6,30.13,NW,310,6.0,14.0,46,0.00,,---,0.00,VWS V14.00,2013-10-08 18:27:00,
2013-10-08 14:32:00,66.0,45.2,30.13,North,4,6.0,10.0,47,0.00,,---,0.00,VWS V14.00,2013-10-08 18:32:00,
2013-10-08 14:37:00,66.2,45.4,30.14,NW,315,6.0,12.0,47,0.00,,---,0.00,VWS V14.00,2013-10-08 18:37:00,
2013-10-08 14:42:00,66.4,45.6,30.14,NNW,329,2.0,5.0,47,0.00,,---,0.00,VWS V14.00,2013-10-08 18:42:00,
2013-10-08 14:47:00,66.6,44.6,30.14,NE,53,4.0,10.0,45,0.00,,---,0.00,VWS V14.00,2013-10-08 18:47:00,
2013-10-08 14:52:00,66.7,45.3,30.14,NNW,335,2.0,7.0,46,0.00,,---,0.00,VWS V14.00,2013-10-08 18:52:00,
2013-10-08 14:57:00,66.8,45.4,30.14,WNW,300,2.0,6.0,46,0.00,,---,0.00,VWS V14.00,2013-10-08 18:57:00,
2013-10-08 15:02:00,66.9,44.3,30.14,NW,319,9.0,12.0,44,0.00,,---,0.00,VWS V14.00,2013-10-08 19:02:00,
2013-10-08 15:07:00,66.8,44.2,30.14,North,356,4.0,9.0,44,0.00,,---,0.00,VWS V14.00,2013-10-08 19:07:00,
2013-10-08 15:12:00,67.1,45.7,30.14,NNE,22,6.0,8.0,46,0.00,,---,0.00,VWS V14.00,2013-10-08 19:12:00,
2013-10-08 15:18:00,66.9,44.3,30.14,North,352,7.0,12.0,44,0.00,,---,0.00,VWS V14.00,2013-10-08 19:18:00,
2013-10-08 15:23:00,66.7,44.7,30.14,NW,326,5.0,8.0,45,0.00,,---,0.00,VWS V14.00,2013-10-08 19:23:00,
2013-10-08 15:28:00,66.8,44.8,30.14,North,352,6.0,9.0,45,0.00,,---,0.00,VWS V14.00,2013-10-08 19:28:00,
2013-10-08 15:33:00,67.1,46.2,30.14,North,355,6.0,9.0,47,0.00,,---,0.00,VWS V14.00,2013-10-08 19:33:00,
2013-10-08 15:38:00,66.8,44.8,30.15,NNE,22,3.0,8.0,45,0.00,,---,0.00,VWS V14.00,2013-10-08 19:38:00,
2013-10-08 15:43:00,66.5,44.5,30.15,ENE,77,3.0,7.0,45,0.00,,---,0.00,VWS V14.00,2013-10-08 19:43:00,
2013-10-08 15:48:00,66.4,44.4,30.15,NNW,340,4.0,9.0,45,0.00,,---,0.00,VWS V14.00,2013-10-08 19:48:00,
2013-10-08 15:53:00,66.3,44.9,30.15,North,360,6.0,9.0,46,0.00,,---,0.00,VWS V14.00,2013-10-08 19:53:00,
2013-10-08 15:58:00,66.4,45.0,30.14,NNE,29,6.0,9.0,46,0.00,,---,0.00,VWS V14.00,2013-10-08 19:58:00,
2013-10-08 16:03:00,66.5,45.1,30.14,NE,54,4.0,7.0,46,0.00,,---,0.00,VWS V14.00,2013-10-08 20:03:00,
2013-10-08 16:08:00,66.2,45.4,30.14,NNE,22,0.0,7.0,47,0.00,,---,0.00,VWS V14.00,2013-10-08 20:08:00,
2013-10-08 16:13:00,66.0,45.2,30.14,NNE,19,6.0,8.0,47,0.00,,---,0.00,VWS V14.00,2013-10-08 20:13:00,
2013-10-08 16:18:00,66.0,45.2,30.14,NW,321,6.0,7.0,47,0.00,,---,0.00,VWS V14.00,2013-10-08 20:18:00,
2013-10-08 16:23:00,66.0,45.2,30.14,NE,37,3.0,4.0,47,0.00,,---,0.00,VWS V14.00,2013-10-08 20:23:00,
2013-10-08 16:28:00,65.8,46.7,30.14,NE,37,5.0,6.0,50,0.00,,---,0.00,VWS V14.00,2013-10-08 20:28:00,
2013-10-08 16:33:00,65.6,47.0,30.14,NNE,31,2.0,2.0,51,0.00,,---,0.00,VWS V14.00,2013-10-08 20:33:00,
2013-10-08 16:38:00,65.5,46.9,30.14,NE,44,3.0,6.0,51,0.00,,---,0.00,VWS V14.00,2013-10-08 20:38:00,
2013-10-08 16:43:00,65.2,47.2,30.14,NE,39,2.0,5.0,52,0.00,,---,0.00,VWS V14.00,2013-10-08 20:43:00,
2013-10-08 16:48:00,64.9,46.9,30.14,East,91,4.0,5.0,52,0.00,,---,0.00,VWS V14.00,2013-10-08 20:48:00,
2013-10-08 16:53:00,64.8,47.3,30.14,ENE,67,4.0,4.0,53,0.00,,---,0.00,VWS V14.00,2013-10-08 20:53:00,
2013-10-08 16:58:00,64.6,47.6,30.13,East,93,1.0,3.0,54,0.00,,---,0.00,VWS V14.00,2013-10-08 20:58:00,
2013-10-08 17:04:00,64.7,47.7,30.14,NW,321,1.0,1.0,54,0.00,,---,0.00,VWS V14.00,2013-10-08 21:04:00,
2013-10-08 17:09:00,64.7,47.7,30.14,NNE,30,2.0,2.0,54,0.00,,---,0.00,VWS V14.00,2013-10-08 21:09:00,
2013-10-08 17:14:00,64.5,47.5,30.14,NE,37,3.0,5.0,54,0.00,,---,0.00,VWS V14.00,2013-10-08 21:14:00,
2013-10-08 17:19:00,64.3,47.3,30.14,NE,37,3.0,3.0,54,0.00,,---,0.00,VWS V14.00,2013-10-08 21:19:00,
2013-10-08 17:24:00,64.1,47.6,30.15,ENE,60,1.0,4.0,55,0.00,,---,0.00,VWS V14.00,2013-10-08 21:24:00,
2013-10-08 17:29:00,63.9,47.4,30.15,NE,36,1.0,4.0,55,0.00,,---,0.00,VWS V14.00,2013-10-08 21:29:00,
2013-10-08 17:34:00,63.9,47.9,30.15,North,6,1.0,1.0,56,0.00,,---,0.00,VWS V14.00,2013-10-08 21:34:00,
2013-10-08 17:39:00,63.8,48.3,30.15,NE,51,3.0,4.0,57,0.00,,---,0.00,VWS V14.00,2013-10-08 21:39:00,
2013-10-08 17:44:00,63.6,47.6,30.15,NE,41,3.0,3.0,56,0.00,,---,0.00,VWS V14.00,2013-10-08 21:44:00,
2013-10-08 17:49:00,63.4,47.9,30.16,NE,39,0.0,1.0,57,0.00,,---,0.00,VWS V14.00,2013-10-08 21:49:00,
2013-10-08 17:55:00,63.2,47.7,30.16,NE,39,3.0,4.0,57,0.00,,---,0.00,VWS V14.00,2013-10-08 21:55:00,
2013-10-08 18:00:00,63.0,47.5,30.16,NE,41,2.0,2.0,57,0.00,,---,0.00,VWS V14.00,2013-10-08 22:00:00,
2013-10-08 18:05:00,62.8,47.4,30.16,NNE,17,1.0,2.0,57,0.00,,---,0.00,VWS V14.00,2013-10-08 22:05:00,
2013-10-08 18:10:00,62.5,47.5,30.16,ENE,58,0.0,1.0,58,0.00,,---,0.00,VWS V14.00,2013-10-08 22:10:00,
2013-10-08 18:15:00,62.2,47.7,30.17,NE,36,0.0,0.0,59,0.00,,---,0.00,VWS V14.00,2013-10-08 22:15:00,
2013-10-08 18:20:00,61.9,47.4,30.17,NE,34,0.0,1.0,59,0.00,,---,0.00,VWS V14.00,2013-10-08 22:20:00,
2013-10-08 18:25:00,61.6,47.6,30.17,NE,34,0.0,0.0,60,0.00,,---,0.00,VWS V14.00,2013-10-08 22:25:00,
2013-10-08 18:30:00,61.3,47.3,30.17,NE,34,0.0,0.0,60,0.00,,---,0.00,VWS V14.00,2013-10-08 22:30:00,
2013-10-08 18:35:00,61.2,47.2,30.17,NNE,32,0.0,1.0,60,0.00,,---,0.00,VWS V14.00,2013-10-08 22:35:00,
2013-10-08 18:41:00,60.9,47.8,30.17,NNE,32,0.0,0.0,62,0.00,,---,0.00,VWS V14.00,2013-10-08 22:41:00,
2013-10-08 18:46:00,60.4,47.8,30.18,NNE,32,0.0,0.0,63,0.00,,---,0.00,VWS V14.00,2013-10-08 22:46:00,
2013-10-08 18:51:00,60.1,47.9,30.18,NNE,32,0.0,0.0,64,0.00,,---,0.00,VWS V14.00,2013-10-08 22:51:00,
2013-10-08 18:56:00,59.8,48.4,30.18,NNE,32,0.0,0.0,66,0.00,,---,0.00,VWS V14.00,2013-10-08 22:56:00,
2013-10-08 19:01:00,59.4,48.0,30.18,NNE,32,0.0,1.0,66,0.00,,---,0.00,VWS V14.00,2013-10-08 23:01:00,
2013-10-08 19:06:00,59.1,48.2,30.18,NNE,32,0.0,0.0,67,0.00,,---,0.00,VWS V14.00,2013-10-08 23:06:00,
2013-10-08 19:11:00,58.8,48.7,30.18,NNE,32,0.0,0.0,69,0.00,,---,0.00,VWS V14.00,2013-10-08 23:11:00,
2013-10-08 19:16:00,58.5,48.8,30.18,North,6,0.0,0.0,70,0.00,,---,0.00,VWS V14.00,2013-10-08 23:16:00,
2013-10-08 19:21:00,58.2,48.5,30.18,North,6,0.0,0.0,70,0.00,,---,0.00,VWS V14.00,2013-10-08 23:21:00,
2013-10-08 19:26:00,58.0,48.7,30.18,North,353,2.0,2.0,71,0.00,,---,0.00,VWS V14.00,2013-10-08 23:26:00,
2013-10-08 19:32:00,58.0,48.7,30.18,NNE,23,1.0,2.0,71,0.00,,---,0.00,VWS V14.00,2013-10-08 23:32:00,
2013-10-08 19:37:00,58.0,48.7,30.19,NNE,23,0.0,1.0,71,0.00,,---,0.00,VWS V14.00,2013-10-08 23:37:00,
2013-10-08 19:42:00,57.9,48.9,30.19,NNE,32,2.0,2.0,72,0.00,,---,0.00,VWS V14.00,2013-10-08 23:42:00,
2013-10-08 19:47:00,57.8,49.2,30.19,NE,44,2.0,3.0,73,0.00,,---,0.00,VWS V14.00,2013-10-08 23:47:00,
2013-10-08 19:52:00,57.5,49.3,30.19,NNE,20,3.0,4.0,74,0.00,,---,0.00,VWS V14.00,2013-10-08 23:52:00,
2013-10-08 19:57:00,57.2,49.7,30.19,NNE,31,2.0,3.0,76,0.00,,---,0.00,VWS V14.00,2013-10-08 23:57:00,
2013-10-08 20:02:00,57.0,49.9,30.19,NNE,15,2.0,4.0,77,0.00,,---,0.00,VWS V14.00,2013-10-09 00:02:00,
2013-10-08 20:07:00,56.7,49.6,30.19,North,11,0.0,3.0,77,0.00,,---,0.00,VWS V14.00,2013-10-09 00:07:00,
2013-10-08 20:12:00,56.6,49.8,30.19,NNE,22,2.0,4.0,78,0.00,,---,0.00,VWS V14.00,2013-10-09 00:12:00,
2013-10-08 20:17:00,56.4,49.6,30.20,NNW,347,3.0,4.0,78,0.00,,---,0.00,VWS V14.00,2013-10-09 00:17:00,
2013-10-08 20:23:00,56.2,49.8,30.20,NNE,23,3.0,4.0,79,0.00,,---,0.00,VWS V14.00,2013-10-09 00:23:00,
2013-10-08 20:28:00,55.9,49.8,30.20,NNE,22,2.0,4.0,80,0.00,,---,0.00,VWS V14.00,2013-10-09 00:28:00,
2013-10-08 20:33:00,55.7,49.6,30.20,NNW,338,2.0,4.0,80,0.00,,---,0.00,VWS V14.00,2013-10-09 00:33:00,
2013-10-08 20:38:00,55.5,49.4,30.20,NNE,25,3.0,3.0,80,0.00,,---,0.00,VWS V14.00,2013-10-09 00:38:00,
2013-10-08 20:43:00,55.4,49.3,30.20,North,355,2.0,2.0,80,0.00,,---,0.00,VWS V14.00,2013-10-09 00:43:00,
2013-10-08 20:48:00,55.3,49.2,30.20,NNE,12,1.0,1.0,80,0.00,,---,0.00,VWS V14.00,2013-10-09 00:48:00,
2013-10-08 20:53:00,55.3,48.9,30.20,North,352,0.0,0.0,79,0.00,,---,0.00,VWS V14.00,2013-10-09 00:53:00,
2013-10-08 20:58:00,55.2,48.8,30.20,North,352,0.0,0.0,79,0.00,,---,0.00,VWS V14.00,2013-10-09 00:58:00,
2013-10-08 21:03:00,55.1,48.7,30.21,North,351,0.0,0.0,79,0.00,,---,0.00,VWS V14.00,2013-10-09 01:03:00,
2013-10-08 21:08:00,54.8,48.4,30.21,North,352,0.0,0.0,79,0.00,,---,0.00,VWS V14.00,2013-10-09 01:08:00,
2013-10-08 21:13:00,54.3,48.3,30.21,North,352,0.0,0.0,80,0.00,,---,0.00,VWS V14.00,2013-10-09 01:13:00,
2013-10-08 21:19:00,54.0,48.3,30.21,North,352,0.0,0.0,81,0.00,,---,0.00,VWS V14.00,2013-10-09 01:19:00,
2013-10-08 21:24:00,53.8,48.1,30.21,North,352,0.0,0.0,81,0.00,,---,0.00,VWS V14.00,2013-10-09 01:24:00,
2013-10-08 21:29:00,53.7,48.3,30.21,NNW,348,2.0,2.0,82,0.00,,---,0.00,VWS V14.00,2013-10-09 01:29:00,
2013-10-08 21:34:00,53.6,48.2,30.22,NNE,15,1.0,2.0,82,0.00,,---,0.00,VWS V14.00,2013-10-09 01:34:00,
2013-10-08 21:39:00,53.6,48.2,30.22,NNE,16,1.0,1.0,82,0.00,,---,0.00,VWS V14.00,2013-10-09 01:39:00,
2013-10-08 21:44:00,53.9,48.2,30.22,NNE,30,4.0,4.0,81,0.00,,---,0.00,VWS V14.00,2013-10-09 01:44:00,
2013-10-08 21:50:00,54.3,48.3,30.22,ENE,58,0.0,3.0,80,0.00,,---,0.00,VWS V14.00,2013-10-09 01:50:00,
2013-10-08 21:55:00,54.2,48.2,30.22,ENE,58,0.0,0.0,80,0.00,,---,0.00,VWS V14.00,2013-10-09 01:55:00,
2013-10-08 22:00:00,54.1,48.1,30.23,NE,54,0.0,0.0,80,0.00,,---,0.00,VWS V14.00,2013-10-09 02:00:00,
2013-10-08 22:05:00,53.9,48.2,30.23,North,359,2.0,3.0,81,0.00,,---,0.00,VWS V14.00,2013-10-09 02:05:00,
2013-10-08 22:10:00,53.9,48.2,30.23,NNE,13,2.0,4.0,81,0.00,,---,0.00,VWS V14.00,2013-10-09 02:10:00,
2013-10-08 22:15:00,53.9,48.2,30.23,NNE,17,2.0,4.0,81,0.00,,---,0.00,VWS V14.00,2013-10-09 02:15:00,
2013-10-08 22:20:00,53.8,48.1,30.23,North,360,3.0,4.0,81,0.00,,---,0.00,VWS V14.00,2013-10-09 02:20:00,
2013-10-08 22:25:00,53.7,48.0,30.24,NNE,23,3.0,3.0,81,0.00,,---,0.00,VWS V14.00,2013-10-09 02:25:00,
2013-10-08 22:30:00,53.6,47.9,30.24,NNE,20,3.0,5.0,81,0.00,,---,0.00,VWS V14.00,2013-10-09 02:30:00,
2013-10-08 22:36:00,53.5,47.5,30.24,NNE,23,2.0,4.0,80,0.00,,---,0.00,VWS V14.00,2013-10-09 02:36:00,
2013-10-08 22:41:00,53.5,47.5,30.24,NNW,328,4.0,4.0,80,0.00,,---,0.00,VWS V14.00,2013-10-09 02:41:00,
2013-10-08 22:46:00,53.5,47.5,30.24,NNW,341,2.0,4.0,80,0.00,,---,0.00,VWS V14.00,2013-10-09 02:46:00,
2013-10-08 22:51:00,53.5,47.5,30.24,NNW,338,2.0,4.0,80,0.00,,---,0.00,VWS V14.00,2013-10-09 02:51:00,
2013-10-08 22:56:00,53.4,47.1,30.24,North,349,1.0,3.0,79,0.00,,---,0.00,VWS V14.00,2013-10-09 02:56:00,
2013-10-08 23:01:00,53.4,47.1,30.24,NNW,336,2.0,3.0,79,0.00,,---,0.00,VWS V14.00,2013-10-09 03:01:00,
2013-10-08 23:06:00,53.4,47.1,30.24,NNW,343,3.0,4.0,79,0.00,,---,0.00,VWS V14.00,2013-10-09 03:06:00,
2013-10-08 23:12:00,53.3,47.0,30.24,NNW,338,3.0,4.0,79,0.00,,---,0.00,VWS V14.00,2013-10-09 03:12:00,
2013-10-08 23:17:00,53.2,46.9,30.24,North,10,2.0,3.0,79,0.00,,---,0.00,VWS V14.00,2013-10-09 03:17:00,
2013-10-08 23:22:00,53.1,46.8,30.24,NNE,27,3.0,5.0,79,0.00,,---,0.00,VWS V14.00,2013-10-09 03:22:00,
2013-10-08 23:27:00,53.2,46.5,30.24,NNE,15,2.0,5.0,78,0.00,,---,0.00,VWS V14.00,2013-10-09 03:27:00,
2013-10-08 23:32:00,53.1,46.4,30.24,NNW,335,3.0,3.0,78,0.00,,---,0.00,VWS V14.00,2013-10-09 03:32:00,
2013-10-08 23:37:00,53.1,46.4,30.24,NNE,16,2.0,4.0,78,0.00,,---,0.00,VWS V14.00,2013-10-09 03:37:00,
2013-10-08 23:43:00,53.0,46.3,30.24,North,1,1.0,3.0,78,0.00,,---,0.00,VWS V14.00,2013-10-09 03:43:00,
2013-10-08 23:48:00,52.9,46.2,30.24,NNE,13,2.0,2.0,78,0.00,,---,0.00,VWS V14.00,2013-10-09 03:48:00,
2013-10-08 23:53:00,52.8,46.1,30.24,NNW,341,1.0,2.0,78,0.00,,---,0.00,VWS V14.00,2013-10-09 03:53:00,
2013-10-08 23:58:00,52.7,46.4,30.24,NNW,348,2.0,3.0,79,0.00,,---,0.00,VWS V14.00,2013-10-09 03:58:00,